Time;durP1;ratioP1;P1;durP2;ratioP2;P2;SDS_P1;SDS_P2;PMS_P1;PMS_P2;Temp;Humidity;BMP_temperature;BMP_pressure;BME280_temperature;BME280_humidity;BME280_pressure;Samples;Min_cycle;Max_cycle;Signal;HPM_P1;HPM_P2
2023/04/01 00:08:05;;;;;;;12.50;7.60;;;;;;;7.23;80.63;96788.98;435698;1251;96737;-42
2023/04/01 00:18:13;;;;;;;11.60;7.20;;;;;;;7.07;80.82;96784.13;435523;1250;109023;-40
2023/04/01 00:28:21;;;;;;;12.80;7.00;;;;;;;6.94;80.78;96781.30;435889;1253;109664;-41
2023/04/01 00:38:28;;;;;;;9.50;6.20;;;;;;;6.98;80.88;96783.38;435552;1253;97875;-42
2023/04/01 00:48:39;;;;;;;9.30;7.20;;;;;;;7.12;80.84;96783.70;435411;1250;107996;-41
2023/04/01 00:58:52;;;;;;;9.60;7.10;;;;;;;7.16;80.75;96785.25;435629;1253;97906;-41
2023/04/01 01:09:20;;;;;;;9.00;5.90;;;;;;;7.25;80.95;96778.42;436397;1253;108795;-40
2023/04/01 01:19:39;;;;;;;15.70;8.80;;;;;;;7.28;80.84;96778.65;435369;1254;106679;-40
2023/04/01 01:30:24;;;;;;;15.20;8.60;;;;;;;7.18;81.03;96776.48;435439;1251;97891;-40
2023/04/01 01:40:35;;;;;;;8.20;5.70;;;;;;;7.23;81.16;96777.14;435241;1259;106899;-40
2023/04/01 01:50:42;;;;;;;10.60;6.40;;;;;;;7.31;81.21;96776.73;435478;1252;97953;-41
2023/04/01 02:00:47;;;;;;;12.60;6.50;;;;;;;7.45;81.11;96773.60;435444;1253;110483;-41
2023/04/01 02:10:52;;;;;;;8.10;6.40;;;;;;;7.54;81.28;96769.80;435234;1261;107214;-43
2023/04/01 02:21:00;;;;;;;9.40;5.70;;;;;;;7.55;81.01;96763.59;435287;1254;96626;-41
2023/04/01 02:31:09;;;;;;;15.70;8.90;;;;;;;7.51;81.02;96764.10;435475;1251;107873;-40
2023/04/01 02:41:16;;;;;;;16.20;10.30;;;;;;;7.37;81.18;96769.45;435315;1263;97899;-41
2023/04/01 02:51:23;;;;;;;9.00;7.80;;;;;;;7.25;80.99;96777.67;435298;1255;110563;-40
2023/04/01 03:11:37;;;;;;;12.70;8.50;;;;;;;7.32;81.32;96794.88;435472;1262;97858;-41
2023/04/01 03:21:44;;;;;;;11.90;8.30;;;;;;;7.45;81.42;96799.52;435392;1263;108116;-40
2023/04/01 03:31:51;;;;;;;13.20;8.20;;;;;;;7.53;81.43;96797.56;435217;1254;96635;-40
2023/04/01 03:41:59;;;;;;;13.40;9.10;;;;;;;7.52;81.47;96802.92;435308;1250;150395;-40
2023/04/01 03:52:09;;;;;;;16.80;11.80;;;;;;;7.44;81.54;96807.41;435503;1251;107839;-42
2023/04/01 04:02:16;;;;;;;15.10;12.60;;;;;;;7.29;81.50;96809.63;435480;1254;96634;-41
2023/04/01 04:12:23;;;;;;;12.40;10.60;;;;;;;7.32;81.63;96820.80;435512;1254;108562;-41
2023/04/01 04:22:30;;;;;;;10.10;7.70;;;;;;;7.37;81.82;96823.57;435256;1263;97879;-42
2023/04/01 04:42:44;;;;;;;10.00;6.50;;;;;;;7.43;81.90;96823.29;435348;1254;107725;-41
2023/04/01 04:52:51;;;;;;;9.40;6.90;;;;;;;7.43;82.11;96820.08;435285;1264;97853;-41
2023/04/01 05:02:58;;;;;;;13.70;9.20;;;;;;;7.51;82.15;96827.12;435316;1254;108406;-41
2023/04/01 05:13:05;;;;;;;9.30;6.40;;;;;;;7.59;82.16;96828.86;435328;1251;97850;-40
2023/04/01 05:23:12;;;;;;;13.10;8.80;;;;;;;7.80;82.37;96826.92;435245;1251;109505;-40
2023/04/01 05:33:19;;;;;;;19.40;10.30;;;;;;;8.26;82.69;96821.17;435218;1254;108172;-40
2023/04/01 05:43:27;;;;;;;14.80;10.90;;;;;;;8.45;82.34;96826.66;435337;1254;97468;-41
2023/04/01 05:53:34;;;;;;;17.20;10.00;;;;;;;8.47;82.31;96831.20;435307;1251;110804;-41
2023/04/01 06:03:42;;;;;;;10.50;7.40;;;;;;;8.45;82.25;96839.79;435459;1254;108268;-40
2023/04/01 06:14:08;;;;;;;15.40;10.50;;;;;;;8.40;82.29;96839.41;435414;1254;97896;-41
2023/04/01 06:24:29;;;;;;;11.20;8.90;;;;;;;8.42;82.54;96840.15;435329;1254;108442;-40
2023/04/01 06:34:44;;;;;;;13.40;8.00;;;;;;;8.52;82.87;96841.48;435284;1252;97905;-41
2023/04/01 06:44:54;;;;;;;11.70;8.10;;;;;;;8.83;83.09;96842.87;435351;1254;109683;-39
2023/04/01 06:55:01;;;;;;;;;;;;;;;9.00;83.11;96845.69;435300;1253;106643;-40
2023/04/01 07:05:12;;;;;;;11.10;7.90;;;;;;;9.07;83.21;96849.02;435283;1254;97977;-41
2023/04/01 07:15:18;;;;;;;9.80;7.30;;;;;;;9.22;83.27;96857.93;435565;1254;109364;-40
2023/04/01 07:25:30;;;;;;;12.50;9.60;;;;;;;9.20;83.15;96863.83;435404;1253;97954;-41
2023/04/01 07:35:39;;;;;;;18.70;12.00;;;;;;;9.22;83.15;96861.52;435363;1253;110823;-40
2023/04/01 07:45:52;;;;;;;18.10;11.20;;;;;;;9.35;83.27;96864.20;435567;1253;108450;-41
2023/04/01 07:56:04;;;;;;;10.40;8.60;;;;;;;9.46;83.82;96866.68;435552;1251;118362;-42
2023/04/01 08:06:08;;;;;;;6.90;5.90;;;;;;;9.77;83.98;96874.97;435479;1249;107705;-40
2023/04/01 08:16:19;;;;;;;8.10;5.90;;;;;;;10.19;83.85;96875.89;435273;1253;97970;-40
2023/04/01 08:26:27;;;;;;;8.40;6.40;;;;;;;10.58;83.79;96875.36;435383;1253;111313;-40
2023/04/01 08:36:35;;;;;;;8.50;5.70;;;;;;;10.96;83.49;96875.84;435430;1255;107430;-41
2023/04/01 08:47:22;;;;;;;7.90;6.00;;;;;;;10.99;83.22;96877.20;435363;1253;97850;-40
2023/04/01 08:57:32;;;;;;;10.60;6.00;;;;;;;11.36;82.99;96874.88;434734;1249;110718;-42
2023/04/01 09:07:38;;;;;;;5.50;4.10;;;;;;;11.18;82.60;96876.00;435403;1253;108455;-40
2023/04/01 09:17:57;;;;;;;4.80;4.00;;;;;;;11.28;82.67;96875.77;435557;1250;97989;-41
2023/04/01 09:28:03;;;;;;;9.70;5.70;;;;;;;11.07;82.23;96881.48;435446;1253;108106;-42
2023/04/01 09:38:15;;;;;;;5.00;4.40;;;;;;;10.80;82.27;96889.32;435311;1253;96989;-41
2023/04/01 09:48:24;;;;;;;6.70;4.80;;;;;;;10.42;82.39;96891.93;435439;1252;110769;-40
2023/04/01 09:58:57;;;;;;;7.40;5.90;;;;;;;10.17;82.55;96897.14;435441;1249;107839;-41
2023/04/01 10:09:42;;;;;;;7.10;4.20;;;;;;;10.16;83.03;96899.23;435341;1250;97886;-41
2023/04/01 10:20:16;;;;;;;5.90;4.00;;;;;;;10.39;83.19;96899.71;435349;1253;108176;-41
2023/04/01 10:30:57;;;;;;;13.60;7.80;;;;;;;11.04;83.56;96889.05;435187;1262;97919;-41
2023/04/01 10:41:22;;;;;;;2.50;2.30;;;;;;;11.94;83.61;96881.38;435381;1253;110736;-41
2023/04/01 10:52:03;;;;;;;3.10;2.50;;;;;;;12.33;82.85;96875.90;435304;1250;108359;-41
2023/04/01 11:02:43;;;;;;;3.10;2.80;;;;;;;11.71;82.33;96873.83;435068;1251;98115;-41
2023/04/01 11:13:12;;;;;;;2.20;2.00;;;;;;;11.60;82.91;96870.16;435212;1250;110106;-41
2023/04/01 11:23:47;;;;;;;2.70;2.00;;;;;;;12.05;83.05;96870.50;435376;1253;108332;-41
2023/04/01 11:34:17;;;;;;;3.50;2.70;;;;;;;12.64;82.70;96863.37;435316;1249;97890;-41
2023/04/01 11:44:28;;;;;;;5.80;3.40;;;;;;;11.83;82.39;96879.75;435443;1250;107829;-42
2023/04/01 11:54:41;;;;;;;15.10;7.40;;;;;;;10.91;82.85;96898.80;435212;1253;96632;-43
2023/04/01 12:04:59;;;;;;;37.90;19.30;;;;;;;10.34;83.23;96906.71;435382;1253;110443;-42
2023/04/01 12:15:14;;;;;;;18.00;10.60;;;;;;;10.52;83.84;96905.31;435414;1253;107219;-41
2023/04/01 12:25:24;;;;;;;17.90;9.60;;;;;;;10.68;83.97;96905.67;435428;1250;97851;-42
2023/04/01 12:35:33;;;;;;;31.70;17.00;;;;;;;10.82;84.07;96912.52;435399;1266;108382;-41
2023/04/01 12:45:39;;;;;;;14.30;8.40;;;;;;;10.90;83.96;96926.65;435408;1253;97906;-41
2023/04/01 12:55:52;;;;;;;12.90;8.10;;;;;;;11.07;84.07;96937.23;435463;1253;110140;-41
2023/04/01 13:06:20;;;;;;;11.70;8.50;;;;;;;11.17;84.01;96945.33;435446;1250;108338;-40
2023/04/01 13:16:28;;;;;;;5.20;4.00;;;;;;;10.81;83.92;96956.79;435508;1253;97870;-40
2023/04/01 13:26:34;;;;;;;4.50;3.00;;;;;;;10.53;84.07;96965.46;435461;1250;107770;-41
2023/04/01 13:36:44;;;;;;;12.30;8.30;;;;;;;10.81;84.39;96968.27;435245;1253;97911;-41
2023/04/01 13:46:55;;;;;;;4.40;3.80;;;;;;;11.16;84.49;96966.98;435296;1253;109669;-40
2023/04/01 13:57:06;;;;;;;6.20;4.50;;;;;;;11.15;84.45;96971.02;435135;1253;107074;-40
2023/04/01 14:07:16;;;;;;;10.30;6.30;;;;;;;10.92;84.24;96979.94;435421;1249;97902;-42
2023/04/01 14:17:46;;;;;;;7.90;6.00;;;;;;;10.81;84.34;96987.34;435568;1253;107574;-40
2023/04/01 14:38:28;;;;;;;6.30;4.40;;;;;;;10.76;84.39;97001.80;435376;1253;109338;-40
2023/04/01 14:48:36;;;;;;;9.40;6.50;;;;;;;10.91;84.66;97003.98;435489;1253;107881;-40
2023/04/01 15:08:50;;;;;;;12.60;8.50;;;;;;;10.64;84.62;97021.30;435522;1250;108356;-41
2023/04/01 15:18:58;;;;;;;11.10;8.00;;;;;;;10.53;84.78;97023.82;435328;1253;97900;-41
2023/04/01 15:29:08;;;;;;;14.20;8.80;;;;;;;10.50;84.73;97028.69;435363;1253;110585;-40
2023/04/01 15:49:28;;;;;;;28.80;16.80;;;;;;;10.36;85.19;97059.14;434933;1250;406367;-40
2023/04/01 16:09:59;;;;;;;11.60;8.00;;;;;;;10.20;85.29;97081.80;435287;1254;97169;-41
2023/04/01 16:20:07;;;;;;;12.10;8.50;;;;;;;9.89;85.47;97094.51;435392;1255;111096;-40
2023/04/01 16:30:33;;;;;;;14.00;8.70;;;;;;;9.64;85.82;97106.70;435254;1263;107512;-42
2023/04/01 16:40:42;;;;;;;23.20;12.90;;;;;;;9.45;86.36;97124.64;435434;1254;98517;-41
2023/04/01 16:50:51;;;;;;;24.80;14.90;;;;;;;9.32;86.34;97134.67;435364;1250;108313;-41
2023/04/01 17:11:08;;;;;;;35.90;24.90;;;;;;;9.10;86.62;97167.48;435210;1254;109706;-41
2023/04/01 17:21:14;;;;;;;42.20;28.20;;;;;;;9.16;86.83;97184.02;435244;1256;106608;-41
2023/04/01 17:31:34;;;;;;;86.10;51.40;;;;;;;9.15;86.67;97192.55;435353;1254;97883;-41
2023/04/01 17:41:42;;;;;;;;;;;;;;;9.13;86.69;97205.20;435454;1255;107265;-42
2023/04/01 17:51:47;;;;;;;40.80;27.10;;;;;;;9.08;86.83;97215.20;435374;1254;97989;-42
2023/04/01 18:01:55;;;;;;;62.40;38.20;;;;;;;9.03;86.86;97232.73;435329;1256;109829;-41
2023/04/01 18:12:08;;;;;;;46.40;32.70;;;;;;;9.04;86.99;97249.98;435295;1256;107691;-40
2023/04/01 18:32:36;;;;;;;37.60;22.70;;;;;;;8.92;87.01;97274.34;435302;1256;107337;-41
2023/04/01 18:42:44;;;;;;;35.70;23.10;;;;;;;8.86;87.12;97288.58;435395;1256;97912;-40
2023/04/01 18:52:55;;;;;;;41.80;25.50;;;;;;;8.86;87.29;97302.39;435247;1256;109033;-40
2023/04/01 19:03:03;;;;;;;33.20;21.60;;;;;;;8.88;87.52;97311.48;435198;1254;107093;-40
2023/04/01 19:13:17;;;;;;;34.70;23.80;;;;;;;8.76;87.12;97321.81;435524;1250;97850;-41
2023/04/01 19:23:39;;;;;;;52.20;27.70;;;;;;;8.67;87.39;97332.20;436754;1254;107133;-40
2023/04/01 19:33:48;;;;;;;39.80;24.90;;;;;;;8.56;87.44;97346.60;436582;1256;97809;-40
2023/04/01 19:43:59;;;;;;;39.30;24.90;;;;;;;8.51;87.67;97353.98;435956;1251;110496;-40
2023/04/01 19:54:14;;;;;;;37.70;23.20;;;;;;;8.42;87.83;97368.25;435436;1253;108428;-40
2023/04/01 20:04:28;;;;;;;34.40;21.50;;;;;;;8.27;88.00;97378.58;435346;1272;97889;-41
2023/04/01 20:14:37;;;;;;;36.10;23.00;;;;;;;8.17;88.12;97388.52;435256;1253;108289;-39
2023/04/01 20:24:46;;;;;;;46.40;26.30;;;;;;;8.10;88.29;97396.17;435343;1253;97972;-40
2023/04/01 20:34:57;;;;;;;41.60;24.50;;;;;;;8.06;88.51;97398.85;435441;1253;110983;-41
2023/04/01 20:55:30;;;;;;;46.60;28.90;;;;;;;8.00;88.82;97405.70;435612;1263;98404;-41
2023/04/01 21:05:55;;;;;;;44.30;26.50;;;;;;;7.84;89.12;97413.34;435810;1262;107642;-41
2023/04/01 21:16:08;;;;;;;47.30;28.00;;;;;;;7.74;89.53;97431.40;435524;1254;97891;-41
2023/04/01 21:26:34;;;;;;;48.40;26.30;;;;;;;7.67;89.68;97445.98;435434;1266;110752;-39
2023/04/01 21:36:47;;;;;;;46.30;25.70;;;;;;;7.71;89.71;97452.56;435463;1254;108178;-40
2023/04/01 21:47:23;;;;;;;43.60;26.00;;;;;;;7.74;89.79;97462.71;435940;1253;97922;-41
2023/04/01 21:57:58;;;;;;;40.60;25.50;;;;;;;7.70;89.72;97464.17;436563;1253;109479;-40
2023/04/01 22:08:04;;;;;;;39.10;24.80;;;;;;;7.63;89.83;97477.49;436127;1263;96554;-41
2023/04/01 22:18:17;;;;;;;37.00;23.40;;;;;;;7.65;89.85;97488.94;435928;1254;110531;-42
2023/04/01 22:38:39;;;;;;;38.80;25.00;;;;;;;7.65;89.75;97501.04;435479;1253;96567;-41
2023/04/01 22:48:47;;;;;;;47.50;26.00;;;;;;;7.67;89.71;97504.88;435500;1253;106916;-41
2023/04/01 22:58:56;;;;;;;40.10;25.50;;;;;;;7.65;89.61;97514.20;435469;1253;97880;-40
2023/04/01 23:09:06;;;;;;;43.30;25.80;;;;;;;7.59;89.62;97524.58;435349;1264;110481;-40
2023/04/01 23:19:16;;;;;;;44.80;26.50;;;;;;;7.51;89.75;97534.57;435353;1263;109401;-40
2023/04/01 23:29:25;;;;;;;44.40;26.70;;;;;;;7.35;89.80;97537.28;435426;1254;97117;-40
2023/04/01 23:39:30;;;;;;;42.00;27.00;;;;;;;7.26;90.00;97540.33;435618;1263;108429;-40
